sensor_id;sensor_type;location;lat;lon;timestamp;temperature;humidity
67942;SHT31;54731;42.600;23.476;2022-10-26T00:00:25;15.16;63.86
67942;SHT31;54731;42.600;23.476;2022-10-26T00:02:53;15.18;63.85
67942;SHT31;54731;42.600;23.476;2022-10-26T00:05:18;15.15;64.08
67942;SHT31;54731;42.600;23.476;2022-10-26T00:07:43;15.15;63.97
67942;SHT31;54731;42.600;23.476;2022-10-26T00:10:09;15.12;63.92
67942;SHT31;54731;42.600;23.476;2022-10-26T00:12:34;15.09;63.98
67942;SHT31;54731;42.600;23.476;2022-10-26T00:14:59;15.07;63.94
67942;SHT31;54731;42.600;23.476;2022-10-26T00:17:25;15.00;64.22
67942;SHT31;54731;42.600;23.476;2022-10-26T00:19:50;14.98;64.26
67942;SHT31;54731;42.600;23.476;2022-10-26T00:22:15;14.96;64.36
67942;SHT31;54731;42.600;23.476;2022-10-26T00:24:41;14.89;64.50
67942;SHT31;54731;42.600;23.476;2022-10-26T00:27:06;14.89;64.87
67942;SHT31;54731;42.600;23.476;2022-10-26T00:29:31;14.86;64.61
67942;SHT31;54731;42.600;23.476;2022-10-26T00:31:56;14.84;64.76
67942;SHT31;54731;42.600;23.476;2022-10-26T00:34:22;14.78;64.80
67942;SHT31;54731;42.600;23.476;2022-10-26T00:36:47;14.78;64.84
67942;SHT31;54731;42.600;23.476;2022-10-26T00:39:13;14.67;65.18
67942;SHT31;54731;42.600;23.476;2022-10-26T00:41:38;14.62;65.06
67942;SHT31;54731;42.600;23.476;2022-10-26T00:47:09;14.48;65.41
67942;SHT31;54731;42.600;23.476;2022-10-26T00:49:36;14.41;65.68
67942;SHT31;54731;42.600;23.476;2022-10-26T00:52:01;14.42;65.62
67942;SHT31;54731;42.600;23.476;2022-10-26T00:54:27;14.37;65.87
67942;SHT31;54731;42.600;23.476;2022-10-26T00:56:54;14.35;65.81
67942;SHT31;54731;42.600;23.476;2022-10-26T00:59:20;14.31;65.90
67942;SHT31;54731;42.600;23.476;2022-10-26T01:01:46;14.23;66.13
67942;SHT31;54731;42.600;23.476;2022-10-26T01:04:13;14.17;66.28
67942;SHT31;54731;42.600;23.476;2022-10-26T01:06:40;14.14;66.25
67942;SHT31;54731;42.600;23.476;2022-10-26T01:09:06;14.24;66.00
67942;SHT31;54731;42.600;23.476;2022-10-26T01:11:31;14.25;66.05
67942;SHT31;54731;42.600;23.476;2022-10-26T01:13:59;14.17;66.19
67942;SHT31;54731;42.600;23.476;2022-10-26T01:16:50;14.11;66.37
67942;SHT31;54731;42.600;23.476;2022-10-26T01:27:33;13.99;66.47
67942;SHT31;54731;42.600;23.476;2022-10-26T01:32:46;13.94;66.52
67942;SHT31;54731;42.600;23.476;2022-10-26T01:38:12;13.99;66.40
67942;SHT31;54731;42.600;23.476;2022-10-26T01:40:44;14.01;66.41
67942;SHT31;54731;42.600;23.476;2022-10-26T01:43:13;14.00;66.37
67942;SHT31;54731;42.600;23.476;2022-10-26T01:45:42;13.87;66.78
67942;SHT31;54731;42.600;23.476;2022-10-26T01:48:11;13.83;66.90
67942;SHT31;54731;42.600;23.476;2022-10-26T01:50:39;13.80;66.93
67942;SHT31;54731;42.600;23.476;2022-10-26T01:53:05;13.80;67.25
67942;SHT31;54731;42.600;23.476;2022-10-26T01:55:47;13.76;67.15
67942;SHT31;54731;42.600;23.476;2022-10-26T01:58:20;13.80;67.15
67942;SHT31;54731;42.600;23.476;2022-10-26T02:03:36;13.81;67.02
67942;SHT31;54731;42.600;23.476;2022-10-26T02:06:18;13.80;67.01
67942;SHT31;54731;42.600;23.476;2022-10-26T02:08:52;13.70;67.34
67942;SHT31;54731;42.600;23.476;2022-10-26T02:11:32;13.65;67.44
67942;SHT31;54731;42.600;23.476;2022-10-26T02:14:26;13.67;67.31
67942;SHT31;54731;42.600;23.476;2022-10-26T02:16:58;13.56;67.70
67942;SHT31;54731;42.600;23.476;2022-10-26T02:19:32;13.48;67.91
67942;SHT31;54731;42.600;23.476;2022-10-26T02:22:19;13.40;68.11
67942;SHT31;54731;42.600;23.476;2022-10-26T02:24:51;13.39;68.21
67942;SHT31;54731;42.600;23.476;2022-10-26T02:27:23;13.30;68.50
67942;SHT31;54731;42.600;23.476;2022-10-26T02:29:51;13.23;68.59
67942;SHT31;54731;42.600;23.476;2022-10-26T02:32:19;13.19;68.78
67942;SHT31;54731;42.600;23.476;2022-10-26T02:34:48;13.14;69.01
67942;SHT31;54731;42.600;23.476;2022-10-26T02:37:18;13.11;69.00
67942;SHT31;54731;42.600;23.476;2022-10-26T02:39:47;13.06;69.09
67942;SHT31;54731;42.600;23.476;2022-10-26T02:42:14;12.98;69.43
67942;SHT31;54731;42.600;23.476;2022-10-26T02:44:50;12.94;69.39
67942;SHT31;54731;42.600;23.476;2022-10-26T02:47:18;12.81;69.81
67942;SHT31;54731;42.600;23.476;2022-10-26T02:49:44;12.80;69.78
67942;SHT31;54731;42.600;23.476;2022-10-26T02:52:48;12.78;69.87
67942;SHT31;54731;42.600;23.476;2022-10-26T02:57:45;12.75;70.78
67942;SHT31;54731;42.600;23.476;2022-10-26T03:00:15;12.73;70.73
67942;SHT31;54731;42.600;23.476;2022-10-26T03:02:45;12.69;70.90
67942;SHT31;54731;42.600;23.476;2022-10-26T03:05:26;12.71;70.93
67942;SHT31;54731;42.600;23.476;2022-10-26T03:07:53;12.65;71.16
67942;SHT31;54731;42.600;23.476;2022-10-26T03:10:19;12.64;71.26
67942;SHT31;54731;42.600;23.476;2022-10-26T03:12:45;12.63;71.37
67942;SHT31;54731;42.600;23.476;2022-10-26T03:15:10;12.65;71.36
67942;SHT31;54731;42.600;23.476;2022-10-26T03:17:36;12.65;71.53
67942;SHT31;54731;42.600;23.476;2022-10-26T03:20:01;12.64;71.59
67942;SHT31;54731;42.600;23.476;2022-10-26T03:22:27;12.57;72.07
67942;SHT31;54731;42.600;23.476;2022-10-26T03:24:52;12.53;72.05
67942;SHT31;54731;42.600;23.476;2022-10-26T03:27:17;12.57;71.96
67942;SHT31;54731;42.600;23.476;2022-10-26T03:29:43;12.51;72.30
67942;SHT31;54731;42.600;23.476;2022-10-26T03:32:08;12.40;72.74
67942;SHT31;54731;42.600;23.476;2022-10-26T03:34:33;12.41;73.72
67942;SHT31;54731;42.600;23.476;2022-10-26T03:36:58;12.45;73.28
67942;SHT31;54731;42.600;23.476;2022-10-26T03:39:24;12.43;72.90
67942;SHT31;54731;42.600;23.476;2022-10-26T03:41:49;12.38;73.22
67942;SHT31;54731;42.600;23.476;2022-10-26T03:44:15;12.34;73.25
67942;SHT31;54731;42.600;23.476;2022-10-26T03:46:40;12.31;73.42
67942;SHT31;54731;42.600;23.476;2022-10-26T03:49:05;12.33;73.78
67942;SHT31;54731;42.600;23.476;2022-10-26T03:51:31;12.38;73.49
67942;SHT31;54731;42.600;23.476;2022-10-26T03:53:56;12.40;74.09
67942;SHT31;54731;42.600;23.476;2022-10-26T03:56:22;12.45;74.13
67942;SHT31;54731;42.600;23.476;2022-10-26T03:58:47;12.41;74.13
67942;SHT31;54731;42.600;23.476;2022-10-26T04:01:12;12.38;74.16
67942;SHT31;54731;42.600;23.476;2022-10-26T04:03:38;12.45;74.03
67942;SHT31;54731;42.600;23.476;2022-10-26T04:06:03;12.45;73.93
67942;SHT31;54731;42.600;23.476;2022-10-26T04:08:29;12.44;74.02
67942;SHT31;54731;42.600;23.476;2022-10-26T04:10:54;12.41;73.84
67942;SHT31;54731;42.600;23.476;2022-10-26T04:13:19;12.37;73.63
67942;SHT31;54731;42.600;23.476;2022-10-26T04:15:45;12.31;73.93
67942;SHT31;54731;42.600;23.476;2022-10-26T04:18:10;12.31;73.88
67942;SHT31;54731;42.600;23.476;2022-10-26T04:20:35;12.27;74.06
67942;SHT31;54731;42.600;23.476;2022-10-26T04:23:03;12.22;73.88
67942;SHT31;54731;42.600;23.476;2022-10-26T04:25:30;12.24;73.86
67942;SHT31;54731;42.600;23.476;2022-10-26T04:27:56;12.12;74.03
67942;SHT31;54731;42.600;23.476;2022-10-26T04:30:21;12.10;74.60
67942;SHT31;54731;42.600;23.476;2022-10-26T04:32:47;12.10;74.61
67942;SHT31;54731;42.600;23.476;2022-10-26T04:35:12;12.06;74.91
67942;SHT31;54731;42.600;23.476;2022-10-26T04:37:37;12.10;75.18
67942;SHT31;54731;42.600;23.476;2022-10-26T04:40:03;12.14;75.64
67942;SHT31;54731;42.600;23.476;2022-10-26T04:42:29;12.13;75.62
67942;SHT31;54731;42.600;23.476;2022-10-26T04:44:54;12.16;75.39
67942;SHT31;54731;42.600;23.476;2022-10-26T04:47:19;12.12;75.28
67942;SHT31;54731;42.600;23.476;2022-10-26T04:49:45;12.13;75.22
67942;SHT31;54731;42.600;23.476;2022-10-26T04:52:10;12.12;75.13
67942;SHT31;54731;42.600;23.476;2022-10-26T04:54:35;12.10;75.36
67942;SHT31;54731;42.600;23.476;2022-10-26T04:57:00;12.12;75.91
67942;SHT31;54731;42.600;23.476;2022-10-26T04:59:26;12.10;75.95
67942;SHT31;54731;42.600;23.476;2022-10-26T05:01:51;12.09;75.75
67942;SHT31;54731;42.600;23.476;2022-10-26T05:04:16;12.10;76.14
67942;SHT31;54731;42.600;23.476;2022-10-26T05:06:41;12.13;75.88
67942;SHT31;54731;42.600;23.476;2022-10-26T05:09:07;12.20;76.14
67942;SHT31;54731;42.600;23.476;2022-10-26T05:11:32;12.16;75.96
67942;SHT31;54731;42.600;23.476;2022-10-26T05:13:57;12.07;76.12
67942;SHT31;54731;42.600;23.476;2022-10-26T05:16:23;11.99;76.26
67942;SHT31;54731;42.600;23.476;2022-10-26T05:18:48;11.93;77.14
67942;SHT31;54731;42.600;23.476;2022-10-26T05:21:14;11.97;76.96
67942;SHT31;54731;42.600;23.476;2022-10-26T05:23:39;11.99;76.82
67942;SHT31;54731;42.600;23.476;2022-10-26T05:26:04;12.09;77.60
67942;SHT31;54731;42.600;23.476;2022-10-26T05:28:29;12.14;77.61
67942;SHT31;54731;42.600;23.476;2022-10-26T05:30:57;12.14;77.36
67942;SHT31;54731;42.600;23.476;2022-10-26T05:33:22;12.10;77.37
67942;SHT31;54731;42.600;23.476;2022-10-26T05:35:47;12.12;77.37
67942;SHT31;54731;42.600;23.476;2022-10-26T05:38:16;12.12;76.91
67942;SHT31;54731;42.600;23.476;2022-10-26T05:40:52;12.14;76.85
67942;SHT31;54731;42.600;23.476;2022-10-26T05:43:19;12.09;76.77
67942;SHT31;54731;42.600;23.476;2022-10-26T05:45:44;12.09;77.08
67942;SHT31;54731;42.600;23.476;2022-10-26T05:48:09;12.07;77.23
67942;SHT31;54731;42.600;23.476;2022-10-26T05:50:35;12.07;77.24
67942;SHT31;54731;42.600;23.476;2022-10-26T05:53:00;12.07;76.92
67942;SHT31;54731;42.600;23.476;2022-10-26T05:55:26;12.07;76.94
67942;SHT31;54731;42.600;23.476;2022-10-26T05:57:51;12.07;77.11
67942;SHT31;54731;42.600;23.476;2022-10-26T06:00:20;12.07;77.53
67942;SHT31;54731;42.600;23.476;2022-10-26T06:05:21;12.13;77.57
67942;SHT31;54731;42.600;23.476;2022-10-26T06:07:48;12.17;77.85
67942;SHT31;54731;42.600;23.476;2022-10-26T06:10:13;12.23;77.45
67942;SHT31;54731;42.600;23.476;2022-10-26T06:12:39;12.22;77.84
67942;SHT31;54731;42.600;23.476;2022-10-26T06:15:05;12.26;77.78
67942;SHT31;54731;42.600;23.476;2022-10-26T06:20:37;12.47;77.63
67942;SHT31;54731;42.600;23.476;2022-10-26T06:26:21;12.64;76.83
67942;SHT31;54731;42.600;23.476;2022-10-26T06:31:20;12.69;76.71
67942;SHT31;54731;42.600;23.476;2022-10-26T06:33:46;12.73;76.76
67942;SHT31;54731;42.600;23.476;2022-10-26T06:36:22;12.81;76.28
67942;SHT31;54731;42.600;23.476;2022-10-26T06:38:59;12.88;75.86
67942;SHT31;54731;42.600;23.476;2022-10-26T06:41:25;12.92;75.74
67942;SHT31;54731;42.600;23.476;2022-10-26T06:43:51;12.99;75.61
67942;SHT31;54731;42.600;23.476;2022-10-26T06:49:02;13.05;75.36
67942;SHT31;54731;42.600;23.476;2022-10-26T06:51:29;13.11;75.21
67942;SHT31;54731;42.600;23.476;2022-10-26T06:53:59;13.20;74.94
67942;SHT31;54731;42.600;23.476;2022-10-26T06:56:26;13.26;74.78
67942;SHT31;54731;42.600;23.476;2022-10-26T06:58:53;13.28;75.31
67942;SHT31;54731;42.600;23.476;2022-10-26T07:01:20;13.26;75.41
67942;SHT31;54731;42.600;23.476;2022-10-26T07:03:45;13.32;75.23
67942;SHT31;54731;42.600;23.476;2022-10-26T07:06:10;13.32;74.99
67942;SHT31;54731;42.600;23.476;2022-10-26T07:08:36;13.32;74.83
67942;SHT31;54731;42.600;23.476;2022-10-26T07:11:01;13.32;74.47
67942;SHT31;54731;42.600;23.476;2022-10-26T07:13:26;13.40;74.40
67942;SHT31;54731;42.600;23.476;2022-10-26T07:15:52;13.39;74.75
67942;SHT31;54731;42.600;23.476;2022-10-26T07:18:17;13.39;74.72
67942;SHT31;54731;42.600;23.476;2022-10-26T07:20:42;13.39;74.59
67942;SHT31;54731;42.600;23.476;2022-10-26T07:23:08;13.45;74.65
67942;SHT31;54731;42.600;23.476;2022-10-26T07:25:34;13.46;74.52
67942;SHT31;54731;42.600;23.476;2022-10-26T07:28:00;13.56;73.97
67942;SHT31;54731;42.600;23.476;2022-10-26T07:30:27;13.55;74.04
67942;SHT31;54731;42.600;23.476;2022-10-26T07:33:05;13.58;74.14
67942;SHT31;54731;42.600;23.476;2022-10-26T07:35:32;13.62;73.96
67942;SHT31;54731;42.600;23.476;2022-10-26T07:37:58;13.63;73.88
67942;SHT31;54731;42.600;23.476;2022-10-26T07:40:24;13.71;73.62
67942;SHT31;54731;42.600;23.476;2022-10-26T07:42:50;13.77;73.36
67942;SHT31;54731;42.600;23.476;2022-10-26T07:45:15;13.83;73.28
67942;SHT31;54731;42.600;23.476;2022-10-26T07:47:40;13.86;72.97
67942;SHT31;54731;42.600;23.476;2022-10-26T07:50:06;13.94;72.81
67942;SHT31;54731;42.600;23.476;2022-10-26T07:52:31;14.03;72.63
67942;SHT31;54731;42.600;23.476;2022-10-26T07:54:56;14.00;72.53
67942;SHT31;54731;42.600;23.476;2022-10-26T07:57:22;14.04;72.48
67942;SHT31;54731;42.600;23.476;2022-10-26T07:59:47;14.09;72.37
67942;SHT31;54731;42.600;23.476;2022-10-26T08:02:12;14.14;72.26
67942;SHT31;54731;42.600;23.476;2022-10-26T08:04:38;14.17;71.87
67942;SHT31;54731;42.600;23.476;2022-10-26T08:07:03;14.27;71.87
67942;SHT31;54731;42.600;23.476;2022-10-26T08:09:28;14.31;71.72
67942;SHT31;54731;42.600;23.476;2022-10-26T08:11:54;14.31;71.41
67942;SHT31;54731;42.600;23.476;2022-10-26T08:14:19;14.40;70.94
67942;SHT31;54731;42.600;23.476;2022-10-26T08:16:44;14.45;70.57
67942;SHT31;54731;42.600;23.476;2022-10-26T08:19:09;14.52;70.39
67942;SHT31;54731;42.600;23.476;2022-10-26T08:21:35;14.60;70.45
67942;SHT31;54731;42.600;23.476;2022-10-26T08:24:00;14.62;69.82
67942;SHT31;54731;42.600;23.476;2022-10-26T08:26:25;14.67;69.89
67942;SHT31;54731;42.600;23.476;2022-10-26T08:28:51;14.74;70.21
67942;SHT31;54731;42.600;23.476;2022-10-26T08:31:16;14.78;70.04
67942;SHT31;54731;42.600;23.476;2022-10-26T08:33:41;14.89;68.98
67942;SHT31;54731;42.600;23.476;2022-10-26T08:36:07;14.95;68.91
67942;SHT31;54731;42.600;23.476;2022-10-26T08:38:32;14.99;69.03
67942;SHT31;54731;42.600;23.476;2022-10-26T08:40:57;15.09;67.66
67942;SHT31;54731;42.600;23.476;2022-10-26T08:43:30;15.16;67.56
67942;SHT31;54731;42.600;23.476;2022-10-26T08:46:07;15.22;67.29
67942;SHT31;54731;42.600;23.476;2022-10-26T08:48:37;15.26;67.59
67942;SHT31;54731;42.600;23.476;2022-10-26T08:51:13;15.33;66.61
67942;SHT31;54731;42.600;23.476;2022-10-26T08:53:49;15.40;65.01
67942;SHT31;54731;42.600;23.476;2022-10-26T08:58:59;15.51;62.79
67942;SHT31;54731;42.600;23.476;2022-10-26T09:01:25;15.61;62.40
67942;SHT31;54731;42.600;23.476;2022-10-26T09:03:50;15.73;61.44
67942;SHT31;54731;42.600;23.476;2022-10-26T09:07:05;15.79;58.88
67942;SHT31;54731;42.600;23.476;2022-10-26T09:14:55;16.05;54.68
67942;SHT31;54731;42.600;23.476;2022-10-26T09:17:36;16.15;55.41
67942;SHT31;54731;42.600;23.476;2022-10-26T09:20:14;16.24;54.29
67942;SHT31;54731;42.600;23.476;2022-10-26T09:25:23;16.40;54.67
67942;SHT31;54731;42.600;23.476;2022-10-26T09:27:55;16.49;54.63
67942;SHT31;54731;42.600;23.476;2022-10-26T09:30:22;16.52;53.50
67942;SHT31;54731;42.600;23.476;2022-10-26T09:33:10;16.55;54.96
67942;SHT31;54731;42.600;23.476;2022-10-26T09:36:00;16.59;55.91
67942;SHT31;54731;42.600;23.476;2022-10-26T09:41:37;16.82;54.70
67942;SHT31;54731;42.600;23.476;2022-10-26T09:46:54;17.05;54.58
67942;SHT31;54731;42.600;23.476;2022-10-26T09:49:25;17.13;54.05
67942;SHT31;54731;42.600;23.476;2022-10-26T09:51:52;17.17;54.39
67942;SHT31;54731;42.600;23.476;2022-10-26T09:54:19;17.24;53.57
67942;SHT31;54731;42.600;23.476;2022-10-26T09:56:50;17.30;53.81
67942;SHT31;54731;42.600;23.476;2022-10-26T09:59:19;17.37;53.59
67942;SHT31;54731;42.600;23.476;2022-10-26T10:01:45;17.41;52.58
67942;SHT31;54731;42.600;23.476;2022-10-26T10:06:40;17.64;51.52
67942;SHT31;54731;42.600;23.476;2022-10-26T10:11:45;17.73;53.07
67942;SHT31;54731;42.600;23.476;2022-10-26T10:14:15;17.82;51.92
67942;SHT31;54731;42.600;23.476;2022-10-26T10:16:49;18.00;52.01
67942;SHT31;54731;42.600;23.476;2022-10-26T10:19:26;18.06;51.66
67942;SHT31;54731;42.600;23.476;2022-10-26T10:21:55;18.24;52.34
67942;SHT31;54731;42.600;23.476;2022-10-26T10:24:32;18.35;50.26
67942;SHT31;54731;42.600;23.476;2022-10-26T10:29:39;18.41;50.41
67942;SHT31;54731;42.600;23.476;2022-10-26T10:32:04;18.43;50.17
67942;SHT31;54731;42.600;23.476;2022-10-26T10:34:31;18.51;49.69
67942;SHT31;54731;42.600;23.476;2022-10-26T10:36:57;18.67;48.79
67942;SHT31;54731;42.600;23.476;2022-10-26T10:39:41;18.73;49.62
67942;SHT31;54731;42.600;23.476;2022-10-26T10:42:19;18.90;49.28
67942;SHT31;54731;42.600;23.476;2022-10-26T10:44:50;18.96;49.75
67942;SHT31;54731;42.600;23.476;2022-10-26T10:47:22;19.06;49.07
67942;SHT31;54731;42.600;23.476;2022-10-26T10:49:59;19.13;48.70
67942;SHT31;54731;42.600;23.476;2022-10-26T10:52:28;19.20;49.15
67942;SHT31;54731;42.600;23.476;2022-10-26T10:58:02;19.38;49.18
67942;SHT31;54731;42.600;23.476;2022-10-26T11:00:30;19.48;49.62
67942;SHT31;54731;42.600;23.476;2022-10-26T11:08:09;19.74;48.42
67942;SHT31;54731;42.600;23.476;2022-10-26T11:10:49;19.85;49.36
67942;SHT31;54731;42.600;23.476;2022-10-26T11:13:22;20.04;47.75
67942;SHT31;54731;42.600;23.476;2022-10-26T11:15:51;20.18;46.80
67942;SHT31;54731;42.600;23.476;2022-10-26T11:18:35;20.36;46.50
67942;SHT31;54731;42.600;23.476;2022-10-26T11:21:25;20.53;46.10
67942;SHT31;54731;42.600;23.476;2022-10-26T11:27:24;20.91;46.20
67942;SHT31;54731;42.600;23.476;2022-10-26T11:29:50;21.31;44.04
67942;SHT31;54731;42.600;23.476;2022-10-26T11:32:22;21.61;44.35
67942;SHT31;54731;42.600;23.476;2022-10-26T11:34:53;21.81;43.63
67942;SHT31;54731;42.600;23.476;2022-10-26T11:38:00;21.92;43.15
67942;SHT31;54731;42.600;23.476;2022-10-26T11:46:03;22.70;41.87
67942;SHT31;54731;42.600;23.476;2022-10-26T11:51:01;23.29;40.52
67942;SHT31;54731;42.600;23.476;2022-10-26T11:53:34;23.56;39.95
67942;SHT31;54731;42.600;23.476;2022-10-26T11:56:02;23.77;39.83
67942;SHT31;54731;42.600;23.476;2022-10-26T11:58:30;23.93;39.36
67942;SHT31;54731;42.600;23.476;2022-10-26T12:01:06;23.80;38.35
67942;SHT31;54731;42.600;23.476;2022-10-26T12:03:41;23.90;38.45
67942;SHT31;54731;42.600;23.476;2022-10-26T12:06:07;24.16;39.47
67942;SHT31;54731;42.600;23.476;2022-10-26T12:08:39;24.50;38.52
67942;SHT31;54731;42.600;23.476;2022-10-26T12:14:20;25.04;38.14
67942;SHT31;54731;42.600;23.476;2022-10-26T12:22:40;25.43;37.40
67942;SHT31;54731;42.600;23.476;2022-10-26T12:35:33;25.83;35.61
67942;SHT31;54731;42.600;23.476;2022-10-26T12:38:01;25.89;35.79
67942;SHT31;54731;42.600;23.476;2022-10-26T12:42:56;25.66;36.30
67942;SHT31;54731;42.600;23.476;2022-10-26T12:45:22;25.55;35.50
67942;SHT31;54731;42.600;23.476;2022-10-26T12:52:40;25.45;35.70
67942;SHT31;54731;42.600;23.476;2022-10-26T13:00:25;25.69;35.50
67942;SHT31;54731;42.600;23.476;2022-10-26T13:06:13;25.08;34.29
67942;SHT31;54731;42.600;23.476;2022-10-26T13:08:46;24.51;34.87
67942;SHT31;54731;42.600;23.476;2022-10-26T13:11:17;24.54;35.26
67942;SHT31;54731;42.600;23.476;2022-10-26T13:13:44;24.77;34.60
67942;SHT31;54731;42.600;23.476;2022-10-26T13:16:16;24.94;34.08
67942;SHT31;54731;42.600;23.476;2022-10-26T13:18:43;24.74;34.32
67942;SHT31;54731;42.600;23.476;2022-10-26T13:21:11;24.63;33.63
67942;SHT31;54731;42.600;23.476;2022-10-26T13:23:39;24.65;33.88
67942;SHT31;54731;42.600;23.476;2022-10-26T13:26:11;24.70;33.58
67942;SHT31;54731;42.600;23.476;2022-10-26T13:32:03;24.51;33.81
67942;SHT31;54731;42.600;23.476;2022-10-26T13:34:03;24.60;33.17
67942;SHT31;54731;42.600;23.476;2022-10-26T13:36:46;24.50;34.19
67942;SHT31;54731;42.600;23.476;2022-10-26T13:39:19;24.54;33.34
67942;SHT31;54731;42.600;23.476;2022-10-26T13:41:46;24.47;34.07
67942;SHT31;54731;42.600;23.476;2022-10-26T13:44:25;24.40;33.18
67942;SHT31;54731;42.600;23.476;2022-10-26T13:46:56;24.23;33.96
67942;SHT31;54731;42.600;23.476;2022-10-26T13:49:27;24.24;33.55
67942;SHT31;54731;42.600;23.476;2022-10-26T13:51:55;24.23;33.45
67942;SHT31;54731;42.600;23.476;2022-10-26T13:59:38;23.68;33.94
67942;SHT31;54731;42.600;23.476;2022-10-26T14:02:21;23.63;34.21
67942;SHT31;54731;42.600;23.476;2022-10-26T14:04:50;23.56;33.67
67942;SHT31;54731;42.600;23.476;2022-10-26T14:07:22;23.44;34.47
67942;SHT31;54731;42.600;23.476;2022-10-26T14:09:52;23.35;34.09
67942;SHT31;54731;42.600;23.476;2022-10-26T14:12:18;23.25;33.56
67942;SHT31;54731;42.600;23.476;2022-10-26T14:14:44;23.15;33.81
67942;SHT31;54731;42.600;23.476;2022-10-26T14:17:21;23.00;33.98
67942;SHT31;54731;42.600;23.476;2022-10-26T14:19:49;22.75;33.56
67942;SHT31;54731;42.600;23.476;2022-10-26T14:22:20;22.68;33.52
67942;SHT31;54731;42.600;23.476;2022-10-26T14:24:57;22.60;33.56
67942;SHT31;54731;42.600;23.476;2022-10-26T14:27:25;22.43;33.93
67942;SHT31;54731;42.600;23.476;2022-10-26T14:29:53;22.23;34.22
67942;SHT31;54731;42.600;23.476;2022-10-26T14:32:26;22.10;33.99
67942;SHT31;54731;42.600;23.476;2022-10-26T14:34:53;21.93;34.24
67942;SHT31;54731;42.600;23.476;2022-10-26T14:40:16;21.58;34.37
67942;SHT31;54731;42.600;23.476;2022-10-26T14:42:44;21.37;34.35
67942;SHT31;54731;42.600;23.476;2022-10-26T14:45:23;21.20;34.68
67942;SHT31;54731;42.600;23.476;2022-10-26T14:47:49;21.08;35.38
67942;SHT31;54731;42.600;23.476;2022-10-26T14:50:19;20.91;35.46
67942;SHT31;54731;42.600;23.476;2022-10-26T14:52:53;20.76;34.97
67942;SHT31;54731;42.600;23.476;2022-10-26T14:55:20;20.59;35.55
67942;SHT31;54731;42.600;23.476;2022-10-26T14:57:48;20.43;36.12
67942;SHT31;54731;42.600;23.476;2022-10-26T15:00:25;20.28;36.22
67942;SHT31;54731;42.600;23.476;2022-10-26T15:02:54;20.15;36.88
67942;SHT31;54731;42.600;23.476;2022-10-26T15:07:49;20.02;36.88
67942;SHT31;54731;42.600;23.476;2022-10-26T15:15:34;19.74;37.08
67942;SHT31;54731;42.600;23.476;2022-10-26T15:18:00;19.61;37.99
67942;SHT31;54731;42.600;23.476;2022-10-26T15:20:27;19.44;38.05
67942;SHT31;54731;42.600;23.476;2022-10-26T15:22:55;19.37;38.40
67942;SHT31;54731;42.600;23.476;2022-10-26T15:25:26;19.23;38.41
67942;SHT31;54731;42.600;23.476;2022-10-26T15:27:52;19.16;39.23
67942;SHT31;54731;42.600;23.476;2022-10-26T15:30:22;19.07;39.43
67942;SHT31;54731;42.600;23.476;2022-10-26T15:32:49;18.94;39.33
67942;SHT31;54731;42.600;23.476;2022-10-26T15:37:43;18.77;40.17
67942;SHT31;54731;42.600;23.476;2022-10-26T15:40:08;18.66;40.09
67942;SHT31;54731;42.600;23.476;2022-10-26T15:42:34;18.63;40.73
67942;SHT31;54731;42.600;23.476;2022-10-26T15:45:00;18.66;39.74
67942;SHT31;54731;42.600;23.476;2022-10-26T15:47:32;18.56;39.84
67942;SHT31;54731;42.600;23.476;2022-10-26T15:49:57;18.51;40.01
67942;SHT31;54731;42.600;23.476;2022-10-26T15:52:22;18.38;39.82
67942;SHT31;54731;42.600;23.476;2022-10-26T15:54:48;18.33;40.30
67942;SHT31;54731;42.600;23.476;2022-10-26T15:57:13;18.21;40.52
67942;SHT31;54731;42.600;23.476;2022-10-26T15:59:38;18.13;40.67
67942;SHT31;54731;42.600;23.476;2022-10-26T16:02:12;18.11;41.22
67942;SHT31;54731;42.600;23.476;2022-10-26T16:04:37;18.02;40.21
67942;SHT31;54731;42.600;23.476;2022-10-26T16:07:03;18.04;39.86
67942;SHT31;54731;42.600;23.476;2022-10-26T16:09:31;17.98;39.76
67942;SHT31;54731;42.600;23.476;2022-10-26T16:11:56;17.94;39.90
67942;SHT31;54731;42.600;23.476;2022-10-26T16:14:22;17.91;39.86
67942;SHT31;54731;42.600;23.476;2022-10-26T16:16:47;17.87;40.23
67942;SHT31;54731;42.600;23.476;2022-10-26T16:19:12;17.81;40.13
67942;SHT31;54731;42.600;23.476;2022-10-26T16:21:38;17.81;40.31
67942;SHT31;54731;42.600;23.476;2022-10-26T16:24:03;17.75;40.70
67942;SHT31;54731;42.600;23.476;2022-10-26T16:26:28;17.71;41.48
67942;SHT31;54731;42.600;23.476;2022-10-26T16:28:54;17.68;41.13
67942;SHT31;54731;42.600;23.476;2022-10-26T16:31:19;17.66;41.19
67942;SHT31;54731;42.600;23.476;2022-10-26T16:33:45;17.63;41.05
67942;SHT31;54731;42.600;23.476;2022-10-26T16:36:11;17.58;41.03
67942;SHT31;54731;42.600;23.476;2022-10-26T16:38:37;17.54;41.50
67942;SHT31;54731;42.600;23.476;2022-10-26T16:41:11;17.50;40.49
67942;SHT31;54731;42.600;23.476;2022-10-26T16:43:39;17.48;40.54
67942;SHT31;54731;42.600;23.476;2022-10-26T16:46:09;17.46;40.71
67942;SHT31;54731;42.600;23.476;2022-10-26T16:48:38;17.40;40.79
67942;SHT31;54731;42.600;23.476;2022-10-26T16:51:15;17.38;40.87
67942;SHT31;54731;42.600;23.476;2022-10-26T16:53:41;17.37;40.41
67942;SHT31;54731;42.600;23.476;2022-10-26T16:56:09;17.30;40.66
67942;SHT31;54731;42.600;23.476;2022-10-26T16:58:35;17.28;40.81
67942;SHT31;54731;42.600;23.476;2022-10-26T17:01:01;17.24;40.99
67942;SHT31;54731;42.600;23.476;2022-10-26T17:03:26;17.22;41.49
67942;SHT31;54731;42.600;23.476;2022-10-26T17:06:03;17.24;41.27
67942;SHT31;54731;42.600;23.476;2022-10-26T17:08:30;17.19;41.97
67942;SHT31;54731;42.600;23.476;2022-10-26T17:11:22;17.10;42.25
67942;SHT31;54731;42.600;23.476;2022-10-26T17:13:52;17.05;42.15
67942;SHT31;54731;42.600;23.476;2022-10-26T17:16:19;16.97;42.41
67942;SHT31;54731;42.600;23.476;2022-10-26T17:18:46;16.95;42.55
67942;SHT31;54731;42.600;23.476;2022-10-26T17:21:13;16.80;42.66
67942;SHT31;54731;42.600;23.476;2022-10-26T17:23:39;16.87;42.63
67942;SHT31;54731;42.600;23.476;2022-10-26T17:26:07;16.86;42.85
67942;SHT31;54731;42.600;23.476;2022-10-26T17:28:33;16.79;43.04
67942;SHT31;54731;42.600;23.476;2022-10-26T17:31:09;16.77;43.16
67942;SHT31;54731;42.600;23.476;2022-10-26T17:33:36;16.73;43.24
67942;SHT31;54731;42.600;23.476;2022-10-26T17:36:04;16.71;43.51
67942;SHT31;54731;42.600;23.476;2022-10-26T17:38:35;16.66;43.52
67942;SHT31;54731;42.600;23.476;2022-10-26T17:41:02;16.65;43.80